KSLO/SLO METAR and TAF weather

Enter ICAO airport designator
Station Type Date Time Source
KSLO METAR 2021/01/17 19:35 UTC NOAA

KSLO 171935Z AUTO 00000KT 10SM SCT015 BKN022 OVC030 01/M02 A2980 RMK AO2 T00081024


Station Type Date Time Source
KSLO Decoded METAR 2021/01/17 19:35 UTC NOAA

Salem, Salem-Leckrone Airport, IL, United States (KSLO) 38-38-34N 088-57-51W 174M
Jan 17, 2021 - 02:35 PM EST / 2021.01.17 1935 UTC
Wind: Calm:0
Visibility: 10 mile(s):0
Sky conditions: overcast
Temperature: 33.4 F (0.8 C)
Dew Point: 27.7 F (-2.4 C)
Relative Humidity: 79%
Pressure (altimeter): 29.8 in. Hg (1009 hPa)
ob: KSLO 171935Z AUTO 00000KT 10SM SCT015 BKN022 OVC030 01/M02 A2980 RMK AO2 T00081024
cycle: 19

Station Type Date Time Source
KSLO TAF UTC NOAA

Error!

Example: see airport list